Time;durP1;ratioP1;P1;durP2;ratioP2;P2;SDS_P1;SDS_P2;PMS_P1;PMS_P2;Temp;Humidity;BMP_temperature;BMP_pressure;BME280_temperature;BME280_humidity;BME280_pressure;Samples;Min_cycle;Max_cycle;Signal;HPM_P1;HPM_P2
2023/11/14 00:00:23;;;;;;;29.42;5.18;;;12.50;99.90;;;;;;5026978;28;20081;-76
2023/11/14 00:02:49;;;;;;;36.95;6.57;;;12.50;99.90;;;;;;5026015;28;20204;-76
2023/11/14 00:05:16;;;;;;;35.47;6.53;;;12.60;99.90;;;;;;5027602;28;20024;-76
2023/11/14 00:07:42;;;;;;;44.63;6.88;;;12.60;99.90;;;;;;5027480;28;20014;-76
2023/11/14 00:10:08;;;;;;;44.33;6.97;;;12.70;99.90;;;;;;5025760;28;20144;-77
2023/11/14 00:12:34;;;;;;;34.22;6.72;;;12.70;99.90;;;;;;5027056;28;20025;-75
2023/11/14 00:15:00;;;;;;;43.95;7.57;;;12.70;99.90;;;;;;5009671;28;20037;-77
2023/11/14 00:17:25;;;;;;;38.63;6.30;;;12.70;99.90;;;;;;5025572;28;20608;-76
2023/11/14 00:19:51;;;;;;;38.10;7.30;;;12.70;99.90;;;;;;5027696;28;20487;-76
2023/11/14 00:22:16;;;;;;;39.83;7.70;;;12.70;99.90;;;;;;5027245;28;20487;-76
2023/11/14 00:24:42;;;;;;;38.45;7.63;;;12.70;99.90;;;;;;5022118;28;20029;-76
2023/11/14 00:27:08;;;;;;;37.28;6.32;;;12.80;99.90;;;;;;5026982;28;20025;-75
2023/11/14 00:29:33;;;;;;;40.70;8.05;;;12.80;99.90;;;;;;5009303;28;20842;-75
2023/11/14 00:31:59;;;;;;;34.35;6.60;;;12.80;99.90;;;;;;5026956;28;20029;-75
2023/11/14 00:34:25;;;;;;;40.97;7.28;;;12.90;99.90;;;;;;5024086;28;20030;-75
2023/11/14 00:36:50;;;;;;;41.67;7.32;;;12.80;99.90;;;;;;5020292;28;20029;-75
2023/11/14 00:39:17;;;;;;;37.15;6.75;;;12.90;99.90;;;;;;5027100;28;20018;-75
2023/11/14 00:41:52;;;;;;;34.40;7.65;;;12.90;99.90;;;;;;5026730;28;20034;-76
2023/11/14 00:44:19;;;;;;;30.38;6.85;;;12.90;99.90;;;;;;4991169;28;20786;-76
2023/11/14 00:46:44;;;;;;;33.30;5.75;;;12.90;99.90;;;;;;5006842;28;20049;-75
2023/11/14 00:49:10;;;;;;;27.75;5.68;;;12.90;99.90;;;;;;5021511;28;20057;-75
2023/11/14 00:51:36;;;;;;;29.55;5.85;;;13.00;99.90;;;;;;5005657;28;20021;-76
2023/11/14 00:54:01;;;;;;;30.23;5.95;;;13.00;99.90;;;;;;5000707;28;20026;-75
2023/11/14 00:56:27;;;;;;;38.15;6.47;;;13.00;99.90;;;;;;5021171;28;20108;-74
2023/11/14 00:58:52;;;;;;;34.17;6.55;;;13.00;99.90;;;;;;5014712;28;20022;-75
2023/11/14 01:01:19;;;;;;;33.33;6.55;;;13.00;99.90;;;;;;5014451;28;20014;-75
2023/11/14 01:03:45;;;;;;;30.63;6.38;;;13.00;99.90;;;;;;4994274;28;20022;-75
2023/11/14 01:06:11;;;;;;;40.17;7.50;;;13.00;99.90;;;;;;4993235;28;20025;-74
2023/11/14 01:08:36;;;;;;;38.85;6.82;;;13.10;99.90;;;;;;4990340;28;20495;-74
2023/11/14 01:11:03;;;;;;;38.90;7.00;;;13.10;99.90;;;;;;4989473;28;20446;-74
2023/11/14 01:13:28;;;;;;;33.83;7.18;;;13.10;99.90;;;;;;5022370;28;20068;-74
2023/11/14 01:15:54;;;;;;;40.15;7.20;;;13.10;99.90;;;;;;5016152;28;20053;-74
2023/11/14 01:18:20;;;;;;;34.50;5.90;;;13.10;99.90;;;;;;5019736;28;20013;-75
2023/11/14 01:20:46;;;;;;;36.80;6.50;;;13.10;99.90;;;;;;5024790;28;20368;-75
2023/11/14 01:23:11;;;;;;;38.53;7.05;;;13.10;99.90;;;;;;5003884;28;20036;-75
2023/11/14 01:25:39;;;;;;;39.38;7.13;;;13.10;99.90;;;;;;5003403;28;20071;-75
2023/11/14 01:28:05;;;;;;;44.28;8.75;;;13.10;99.90;;;;;;5001054;28;20037;-74
2023/11/14 01:30:30;;;;;;;27.20;5.65;;;13.10;99.90;;;;;;4986204;28;20038;-75
2023/11/14 01:32:56;;;;;;;39.30;6.78;;;13.10;99.90;;;;;;4990759;28;20328;-74
2023/11/14 01:35:22;;;;;;;30.20;6.43;;;13.10;99.90;;;;;;5013799;28;20061;-75
2023/11/14 01:37:49;;;;;;;31.45;7.32;;;13.10;99.90;;;;;;5015710;28;20021;-74
2023/11/14 01:40:14;;;;;;;36.53;6.80;;;13.10;99.90;;;;;;5010670;28;20036;-75
2023/11/14 01:42:40;;;;;;;34.85;6.65;;;13.10;99.90;;;;;;5012138;28;20037;-75
2023/11/14 01:45:06;;;;;;;36.70;8.27;;;13.10;99.90;;;;;;5006978;28;20558;-75
2023/11/14 01:47:31;;;;;;;40.95;7.78;;;13.10;99.90;;;;;;5006845;28;20037;-75
2023/11/14 01:49:57;;;;;;;38.05;6.75;;;13.10;99.90;;;;;;5016039;28;20021;-75
2023/11/14 01:52:24;;;;;;;46.40;8.75;;;13.10;99.90;;;;;;5023380;28;20037;-74
2023/11/14 01:54:50;;;;;;;35.80;6.95;;;13.10;99.90;;;;;;5023847;28;20021;-75
2023/11/14 01:57:16;;;;;;;34.50;6.47;;;13.10;99.90;;;;;;5015367;28;20484;-75
2023/11/14 01:59:42;;;;;;;41.05;7.38;;;13.10;99.90;;;;;;5003513;28;20034;-75
2023/11/14 02:02:08;;;;;;;36.25;7.30;;;13.00;99.90;;;;;;4998084;28;20068;-74
2023/11/14 02:04:36;;;;;;;41.80;7.57;;;13.00;99.90;;;;;;4997863;28;20061;-74
2023/11/14 02:07:02;;;;;;;30.15;6.47;;;13.00;99.90;;;;;;4995789;28;20026;-74
2023/11/14 02:09:28;;;;;;;30.15;6.63;;;13.00;99.90;;;;;;4983275;28;20496;-75
2023/11/14 02:11:57;;;;;;;42.10;7.32;;;13.00;99.90;;;;;;5007762;28;20033;-74
2023/11/14 02:14:22;;;;;;;39.95;7.13;;;13.00;99.90;;;;;;5011673;28;20045;-74
2023/11/14 02:16:55;;;;;;;35.28;6.88;;;12.90;99.90;;;;;;4991084;28;20497;-74
2023/11/14 02:19:22;;;;;;;34.75;6.53;;;12.90;99.90;;;;;;4993762;28;20022;-74
2023/11/14 02:21:48;;;;;;;43.67;7.00;;;12.90;99.90;;;;;;5009994;28;20030;-75
2023/11/14 02:24:19;;;;;;;42.80;7.68;;;12.90;99.90;;;;;;5009462;28;20026;-74
2023/11/14 02:26:48;;;;;;;39.85;6.63;;;12.90;99.90;;;;;;5021336;28;20057;-74
2023/11/14 02:29:24;;;;;;;33.70;6.65;;;12.90;99.90;;;;;;5026744;28;20017;-74
2023/11/14 02:31:50;;;;;;;32.22;7.13;;;12.90;99.90;;;;;;4998807;28;20022;-74
2023/11/14 02:34:17;;;;;;;35.70;6.40;;;12.90;99.90;;;;;;5024315;28;20017;-74
2023/11/14 02:36:42;;;;;;;45.35;7.65;;;13.00;99.90;;;;;;4997827;28;20924;-75
2023/11/14 02:39:08;;;;;;;38.92;6.65;;;13.00;99.90;;;;;;5014724;28;20022;-74
2023/11/14 02:41:35;;;;;;;38.55;6.82;;;13.00;99.90;;;;;;4993516;28;20434;-74
2023/11/14 02:44:01;;;;;;;36.75;7.80;;;13.00;99.90;;;;;;5013182;28;20046;-75
2023/11/14 02:46:27;;;;;;;34.75;7.30;;;13.00;99.90;;;;;;5015890;28;20112;-74
2023/11/14 02:48:53;;;;;;;42.80;7.80;;;13.00;99.90;;;;;;5009618;28;20060;-74
2023/11/14 02:51:18;;;;;;;41.17;8.10;;;13.00;99.90;;;;;;5009254;28;20021;-75
2023/11/14 02:53:44;;;;;;;37.25;7.20;;;13.00;99.90;;;;;;5011583;28;20022;-74
2023/11/14 02:56:10;;;;;;;37.67;6.47;;;13.00;99.90;;;;;;5010793;28;20084;-74
2023/11/14 02:58:36;;;;;;;40.42;6.95;;;13.00;99.90;;;;;;5003012;28;20026;-75
2023/11/14 03:01:03;;;;;;;43.92;6.78;;;12.90;99.90;;;;;;5011216;28;20669;-75
2023/11/14 03:03:29;;;;;;;39.45;6.20;;;12.90;99.90;;;;;;5000332;28;20025;-75
2023/11/14 03:05:54;;;;;;;39.45;7.10;;;12.90;99.90;;;;;;4994661;28;20033;-75
2023/11/14 03:08:21;;;;;;;47.00;7.88;;;12.90;99.90;;;;;;5018415;28;20109;-74
2023/11/14 03:10:47;;;;;;;36.75;6.88;;;12.90;99.90;;;;;;5016237;28;20029;-75
2023/11/14 03:13:12;;;;;;;38.92;6.72;;;12.90;99.90;;;;;;5017095;28;20093;-75
2023/11/14 03:15:39;;;;;;;43.70;7.75;;;13.00;99.90;;;;;;5015428;28;20034;-75
2023/11/14 03:18:05;;;;;;;45.38;8.27;;;13.00;99.90;;;;;;5014169;28;20025;-73
2023/11/14 03:20:32;;;;;;;34.10;5.65;;;13.00;99.90;;;;;;5018215;28;20020;-75
2023/11/14 03:22:58;;;;;;;40.75;8.18;;;13.00;99.90;;;;;;5005113;28;20080;-74
2023/11/14 03:25:24;;;;;;;38.45;6.82;;;13.00;99.90;;;;;;4992951;28;20538;-74
2023/11/14 03:27:50;;;;;;;34.38;6.88;;;13.00;99.90;;;;;;5010802;28;20030;-75
2023/11/14 03:30:16;;;;;;;29.45;5.25;;;13.00;99.90;;;;;;5009546;28;20049;-74
2023/11/14 03:32:42;;;;;;;40.08;7.47;;;13.00;99.90;;;;;;5000997;28;20050;-75
2023/11/14 03:35:09;;;;;;;39.35;6.82;;;13.10;99.90;;;;;;5015265;28;20570;-74
2023/11/14 03:37:35;;;;;;;36.05;6.65;;;13.10;99.90;;;;;;5024500;28;20092;-75
2023/11/14 03:40:03;;;;;;;35.70;6.97;;;13.10;99.90;;;;;;5005093;28;20040;-74
2023/11/14 03:42:29;;;;;;;33.92;6.43;;;13.10;99.90;;;;;;5016545;28;20038;-75
2023/11/14 03:44:54;;;;;;;40.55;6.95;;;13.20;99.90;;;;;;5006377;28;20112;-74
2023/11/14 03:47:20;;;;;;;33.70;7.20;;;13.20;99.90;;;;;;5027782;28;20552;-74
2023/11/14 03:49:45;;;;;;;34.45;6.68;;;13.20;99.90;;;;;;5020491;28;20068;-73
2023/11/14 03:52:11;;;;;;;47.78;7.68;;;13.20;99.90;;;;;;5027934;28;20021;-75
2023/11/14 03:54:37;;;;;;;36.20;6.20;;;13.20;99.90;;;;;;5027448;28;20491;-75
2023/11/14 03:57:03;;;;;;;35.13;7.43;;;13.30;99.90;;;;;;5027649;28;20610;-75
2023/11/14 03:59:28;;;;;;;39.03;8.10;;;13.20;99.90;;;;;;5027292;28;20026;-74
2023/11/14 04:01:54;;;;;;;40.25;7.28;;;13.20;99.90;;;;;;5009214;28;20028;-74
2023/11/14 04:04:20;;;;;;;30.63;6.47;;;13.20;99.90;;;;;;5009675;28;20029;-73
2023/11/14 04:06:45;;;;;;;39.70;7.43;;;13.20;99.90;;;;;;5027625;28;20025;-75
2023/11/14 04:09:11;;;;;;;32.95;5.72;;;13.20;99.90;;;;;;5009752;28;20120;-74
2023/11/14 04:11:46;;;;;;;38.10;6.95;;;13.20;99.90;;;;;;5027146;28;20493;-75
2023/11/14 04:14:12;;;;;;;35.35;6.30;;;13.30;99.90;;;;;;5026971;28;20110;-74
2023/11/14 04:16:38;;;;;;;36.85;7.03;;;13.30;99.90;;;;;;5024750;28;20116;-75
2023/11/14 04:19:03;;;;;;;39.83;6.72;;;13.30;99.90;;;;;;5009768;28;20390;-74
2023/11/14 04:21:29;;;;;;;37.78;6.90;;;13.30;99.90;;;;;;5023375;28;20014;-75
2023/11/14 04:23:55;;;;;;;40.78;7.10;;;13.30;99.90;;;;;;5015650;28;20028;-74
2023/11/14 04:26:22;;;;;;;33.10;6.95;;;13.30;99.90;;;;;;5026649;28;20523;-74
2023/11/14 04:28:48;;;;;;;33.97;6.60;;;13.30;99.90;;;;;;5026452;28;20029;-74
2023/11/14 04:31:13;;;;;;;38.95;8.02;;;13.40;99.90;;;;;;5026675;28;20107;-74
2023/11/14 04:33:39;;;;;;;38.47;7.15;;;13.40;99.90;;;;;;5027421;28;20037;-74
2023/11/14 04:36:07;;;;;;;31.77;6.10;;;13.40;99.90;;;;;;5026900;28;20021;-74
2023/11/14 04:38:33;;;;;;;33.33;6.10;;;13.40;99.90;;;;;;5027012;28;20025;-74
2023/11/14 04:40:59;;;;;;;42.35;7.57;;;13.30;99.90;;;;;;5023101;28;20065;-74
2023/11/14 04:43:25;;;;;;;30.27;5.78;;;13.40;99.90;;;;;;5017932;28;20038;-73
2023/11/14 04:45:50;;;;;;;34.60;6.80;;;13.30;99.90;;;;;;5009306;28;20064;-74
2023/11/14 04:48:16;;;;;;;27.67;5.82;;;13.30;99.90;;;;;;5025191;28;20021;-74
2023/11/14 04:50:41;;;;;;;40.83;6.65;;;13.30;99.90;;;;;;5027041;28;20033;-74
2023/11/14 04:53:08;;;;;;;32.22;6.40;;;13.30;99.90;;;;;;5025442;28;20429;-73
2023/11/14 04:55:34;;;;;;;36.15;6.60;;;13.30;99.90;;;;;;5026508;28;20403;-74
2023/11/14 04:57:59;;;;;;;37.63;6.15;;;13.30;99.90;;;;;;5020429;28;20501;-75
2023/11/14 05:00:25;;;;;;;37.40;6.68;;;13.30;99.90;;;;;;5026680;28;20033;-74
2023/11/14 05:03:06;;;;;;;33.17;5.50;;;13.30;99.90;;;;;;5018813;28;20105;-74
2023/11/14 05:05:32;;;;;;;32.67;6.35;;;13.30;99.90;;;;;;5026747;28;20578;-74
2023/11/14 05:07:58;;;;;;;33.28;7.05;;;13.30;99.90;;;;;;5026609;28;20540;-74
2023/11/14 05:10:24;;;;;;;36.38;6.38;;;13.30;99.90;;;;;;5026381;28;20025;-74
2023/11/14 05:12:50;;;;;;;29.50;5.72;;;13.30;99.90;;;;;;5008556;28;20025;-74
2023/11/14 05:15:16;;;;;;;38.17;6.57;;;13.30;99.90;;;;;;5026914;28;20075;-74
2023/11/14 05:17:42;;;;;;;28.10;5.45;;;13.30;99.90;;;;;;5026223;28;20021;-74
2023/11/14 05:20:08;;;;;;;43.83;7.80;;;13.40;99.90;;;;;;5026647;28;20023;-74
2023/11/14 05:22:34;;;;;;;38.25;6.57;;;13.30;99.90;;;;;;5008768;28;20079;-75
2023/11/14 05:25:00;;;;;;;39.10;7.25;;;13.40;99.90;;;;;;5008276;28;20470;-74
2023/11/14 05:27:26;;;;;;;33.67;7.47;;;13.40;99.90;;;;;;5025957;28;20026;-74
2023/11/14 05:29:51;;;;;;;35.08;6.75;;;13.40;99.90;;;;;;5008539;28;20022;-74
2023/11/14 05:32:17;;;;;;;37.47;6.20;;;13.30;99.90;;;;;;5026023;28;20541;-74
2023/11/14 05:34:44;;;;;;;39.08;6.90;;;13.40;99.90;;;;;;5008375;28;20040;-74
2023/11/14 05:37:10;;;;;;;38.75;6.20;;;13.40;99.90;;;;;;5026309;28;20619;-73
2023/11/14 05:39:36;;;;;;;42.80;7.22;;;13.40;99.90;;;;;;5015520;28;20097;-73
2023/11/14 05:42:02;;;;;;;40.15;7.00;;;13.40;99.90;;;;;;5029313;28;20036;-74
2023/11/14 05:44:28;;;;;;;43.13;7.82;;;13.40;99.90;;;;;;5023635;28;20042;-74
2023/11/14 05:46:54;;;;;;;34.58;7.07;;;13.40;99.90;;;;;;5004288;28;20028;-73
2023/11/14 05:49:20;;;;;;;42.70;7.60;;;13.40;99.90;;;;;;5030059;28;20527;-74
2023/11/14 05:51:46;;;;;;;39.70;7.25;;;13.40;99.90;;;;;;5030849;28;20035;-74
2023/11/14 05:54:11;;;;;;;34.92;6.22;;;13.40;99.90;;;;;;5007142;28;20026;-74
2023/11/14 05:56:37;;;;;;;44.90;7.32;;;13.40;99.90;;;;;;5021152;28;20475;-73
2023/11/14 05:59:04;;;;;;;41.63;6.75;;;13.40;99.90;;;;;;5028168;28;20028;-74
2023/11/14 06:01:30;;;;;;;42.42;8.10;;;13.40;99.90;;;;;;5030153;28;20096;-73
2023/11/14 06:03:56;;;;;;;41.67;7.15;;;13.40;99.90;;;;;;5029951;28;20096;-74
2023/11/14 06:06:21;;;;;;;35.85;7.85;;;13.40;99.90;;;;;;5011815;28;20083;-74
2023/11/14 06:08:47;;;;;;;34.25;6.70;;;13.40;99.90;;;;;;5029254;28;20025;-73
2023/11/14 06:11:12;;;;;;;43.90;7.22;;;13.40;99.90;;;;;;5029707;28;20144;-74
2023/11/14 06:13:38;;;;;;;46.10;8.43;;;13.40;99.90;;;;;;5011398;28;20018;-74
2023/11/14 06:16:05;;;;;;;30.30;6.10;;;13.40;99.90;;;;;;5029738;28;20057;-73
2023/11/14 06:18:30;;;;;;;32.45;5.88;;;13.40;99.90;;;;;;5029103;28;20112;-74
2023/11/14 06:21:00;;;;;;;43.72;8.27;;;13.40;99.90;;;;;;5029715;28;20680;-74
2023/11/14 06:23:25;;;;;;;40.15;6.55;;;13.40;99.90;;;;;;5028839;28;20129;-74
2023/11/14 06:25:52;;;;;;;32.63;6.50;;;13.40;99.90;;;;;;5029613;28;20522;-74
2023/11/14 06:28:19;;;;;;;40.88;7.70;;;13.30;99.90;;;;;;5029102;28;20029;-74
2023/11/14 06:30:45;;;;;;;37.97;6.70;;;13.30;99.90;;;;;;5029618;28;20021;-74
2023/11/14 06:33:11;;;;;;;37.05;7.03;;;13.30;99.90;;;;;;5028726;28;20209;-74
2023/11/14 06:35:37;;;;;;;34.80;6.38;;;13.30;99.90;;;;;;5029002;28;20017;-74
2023/11/14 06:38:04;;;;;;;36.05;7.10;;;13.30;99.90;;;;;;5028815;28;20057;-73
2023/11/14 06:40:29;;;;;;;53.17;8.13;;;13.30;99.90;;;;;;5029117;28;20033;-74
2023/11/14 06:42:55;;;;;;;29.35;6.15;;;13.30;99.90;;;;;;5024153;28;20053;-74
2023/11/14 06:45:21;;;;;;;35.53;5.93;;;13.30;99.90;;;;;;5014698;28;20026;-74
2023/11/14 06:47:47;;;;;;;37.38;6.15;;;13.30;99.90;;;;;;5028476;28;20033;-74
2023/11/14 06:50:13;;;;;;;44.80;6.53;;;13.30;99.90;;;;;;5011435;28;20057;-74
2023/11/14 06:52:38;;;;;;;39.35;6.50;;;13.30;99.90;;;;;;4997294;28;20048;-73
2023/11/14 06:55:04;;;;;;;43.05;7.72;;;13.30;99.90;;;;;;5021690;28;20025;-75
2023/11/14 06:57:31;;;;;;;44.22;7.82;;;13.20;99.90;;;;;;5011004;28;20030;-74
2023/11/14 07:00:00;;;;;;;34.72;6.43;;;13.20;99.90;;;;;;5028869;28;20025;-74
2023/11/14 07:02:26;;;;;;;41.10;6.30;;;13.20;99.90;;;;;;5028622;28;20025;-75
2023/11/14 07:04:53;;;;;;;45.10;7.75;;;13.20;99.90;;;;;;5026897;28;20014;-75
2023/11/14 07:07:19;;;;;;;40.83;7.07;;;13.30;99.90;;;;;;5016709;28;20021;-75
2023/11/14 07:09:45;;;;;;;39.03;6.97;;;13.20;99.90;;;;;;5026943;28;20060;-75
2023/11/14 07:12:10;;;;;;;36.45;6.85;;;13.20;99.90;;;;;;5014723;28;20053;-75
2023/11/14 07:14:36;;;;;;;34.00;6.70;;;13.30;99.90;;;;;;5028856;28;20090;-74
2023/11/14 07:17:02;;;;;;;36.95;7.10;;;13.20;99.90;;;;;;5026175;28;20164;-76
2023/11/14 07:19:28;;;;;;;47.30;8.00;;;13.30;99.90;;;;;;5010492;28;20026;-76
2023/11/14 07:21:55;;;;;;;37.78;7.43;;;13.20;99.90;;;;;;5021483;28;20069;-75
2023/11/14 07:24:21;;;;;;;40.60;7.63;;;13.20;99.90;;;;;;5008331;28;20056;-75
2023/11/14 07:26:49;;;;;;;32.17;5.53;;;13.20;99.90;;;;;;5010098;28;20030;-75
2023/11/14 07:29:15;;;;;;;39.05;7.20;;;13.20;99.90;;;;;;5020543;28;20045;-75
2023/11/14 07:31:42;;;;;;;42.50;7.18;;;13.20;99.90;;;;;;5021386;28;20029;-75
2023/11/14 07:34:07;;;;;;;38.60;7.18;;;13.20;99.90;;;;;;5026962;28;20056;-75
2023/11/14 07:36:33;;;;;;;40.30;6.93;;;13.20;99.90;;;;;;5022880;28;20503;-75
2023/11/14 07:39:00;;;;;;;41.08;7.10;;;13.20;99.90;;;;;;5021893;28;20022;-74
2023/11/14 07:41:25;;;;;;;38.05;6.57;;;13.20;99.90;;;;;;5017647;28;20021;-74
2023/11/14 07:43:51;;;;;;;36.22;7.15;;;13.20;99.90;;;;;;5027177;28;20087;-74
2023/11/14 07:46:17;;;;;;;36.95;6.70;;;13.20;99.90;;;;;;5020783;28;20067;-75
2023/11/14 07:48:43;;;;;;;42.05;6.90;;;13.20;99.90;;;;;;5022714;28;20033;-75
2023/11/14 07:51:09;;;;;;;35.92;6.57;;;13.20;99.90;;;;;;5018626;28;20017;-74
2023/11/14 07:53:35;;;;;;;38.00;7.85;;;13.20;99.90;;;;;;5022341;28;20045;-74
2023/11/14 07:56:01;;;;;;;32.00;6.50;;;13.20;99.90;;;;;;5008595;28;20029;-74
2023/11/14 07:58:29;;;;;;;31.30;6.40;;;13.20;99.90;;;;;;5020479;28;20506;-75
2023/11/14 08:00:56;;;;;;;30.58;6.75;;;13.10;99.90;;;;;;5020988;28;20419;-74
2023/11/14 08:03:23;;;;;;;36.03;6.47;;;13.10;99.90;;;;;;5008684;28;20041;-74
2023/11/14 08:05:48;;;;;;;40.38;6.90;;;13.00;99.90;;;;;;5021176;28;20107;-74
2023/11/14 08:08:14;;;;;;;37.05;6.13;;;13.00;99.90;;;;;;5009309;28;20506;-74
2023/11/14 08:10:40;;;;;;;38.90;6.90;;;13.00;99.90;;;;;;5028554;28;20033;-74
2023/11/14 08:13:07;;;;;;;33.72;7.18;;;12.90;99.90;;;;;;5011079;28;20053;-74
2023/11/14 08:15:33;;;;;;;37.55;6.13;;;12.80;99.90;;;;;;5028325;28;20167;-74
2023/11/14 08:17:59;;;;;;;34.97;7.28;;;12.80;99.90;;;;;;5026714;28;20671;-74
2023/11/14 08:20:28;;;;;;;32.88;6.07;;;12.80;99.90;;;;;;5007026;28;20529;-74
2023/11/14 08:22:54;;;;;;;34.90;6.72;;;12.80;99.90;;;;;;5025934;28;20036;-74
2023/11/14 08:25:20;;;;;;;29.92;6.38;;;12.70;99.90;;;;;;5007434;28;20030;-74
2023/11/14 08:27:46;;;;;;;33.78;6.82;;;12.70;99.90;;;;;;5008508;28;20040;-74
2023/11/14 08:30:12;;;;;;;29.25;6.22;;;12.70;99.90;;;;;;5027212;28;20036;-74
2023/11/14 08:32:39;;;;;;;35.33;5.82;;;12.70;99.90;;;;;;5008698;28;20120;-74
2023/11/14 08:35:09;;;;;;;35.30;7.55;;;12.70;99.90;;;;;;5026670;28;20026;-74
2023/11/14 08:37:37;;;;;;;34.40;6.70;;;12.70;99.90;;;;;;5024093;28;20021;-74
2023/11/14 08:40:03;;;;;;;37.03;6.30;;;12.70;99.90;;;;;;5015235;28;20021;-74
2023/11/14 08:42:29;;;;;;;41.45;8.38;;;12.70;99.90;;;;;;5017360;28;20453;-74
2023/11/14 08:44:55;;;;;;;32.08;5.95;;;12.70;99.90;;;;;;5007898;28;20022;-74
2023/11/14 08:47:22;;;;;;;31.67;6.15;;;12.70;99.90;;;;;;5021264;28;20904;-74
2023/11/14 08:49:48;;;;;;;38.58;7.57;;;12.70;99.90;;;;;;5026751;28;20041;-74
2023/11/14 08:52:14;;;;;;;32.17;5.60;;;12.70;99.90;;;;;;5026466;28;20033;-74
2023/11/14 08:54:41;;;;;;;30.40;6.38;;;12.70;99.90;;;;;;5021905;28;20056;-74
2023/11/14 08:57:07;;;;;;;42.10;7.82;;;12.70;99.90;;;;;;5026379;28;20034;-74
2023/11/14 08:59:33;;;;;;;35.63;7.13;;;12.70;99.90;;;;;;5008647;28;20017;-74
2023/11/14 09:01:58;;;;;;;34.90;6.53;;;12.70;99.90;;;;;;5005268;28;20032;-74
2023/11/14 09:04:24;;;;;;;35.20;7.60;;;12.70;99.90;;;;;;5022499;28;20072;-73
2023/11/14 09:06:50;;;;;;;27.00;5.30;;;12.70;99.90;;;;;;5022248;28;20741;-73
2023/11/14 09:09:18;;;;;;;35.33;6.72;;;12.70;99.90;;;;;;5016469;28;20409;-74
2023/11/14 09:11:44;;;;;;;37.78;7.00;;;12.70;99.90;;;;;;5026291;28;20022;-73
2023/11/14 09:14:09;;;;;;;38.17;6.25;;;12.80;99.90;;;;;;5008377;28;20026;-74
2023/11/14 09:16:35;;;;;;;30.58;5.65;;;12.80;99.90;;;;;;5028458;28;20037;-73
2023/11/14 09:19:01;;;;;;;36.38;7.68;;;12.90;99.90;;;;;;5030254;28;20459;-73
2023/11/14 09:21:27;;;;;;;27.17;5.88;;;12.90;99.90;;;;;;5023028;28;20021;-74
2023/11/14 09:23:54;;;;;;;36.70;6.75;;;12.90;99.90;;;;;;5011832;28;20433;-74
2023/11/14 09:26:21;;;;;;;33.90;6.85;;;13.00;99.90;;;;;;5030319;28;20029;-73
2023/11/14 09:28:46;;;;;;;32.05;6.25;;;13.00;99.90;;;;;;5022802;28;20057;-73
2023/11/14 09:31:12;;;;;;;32.28;6.30;;;13.00;99.90;;;;;;5028732;28;20059;-74
2023/11/14 09:33:38;;;;;;;36.20;6.45;;;13.00;99.90;;;;;;5023112;28;20518;-74
2023/11/14 09:36:06;;;;;;;36.70;6.13;;;13.10;99.90;;;;;;5028233;28;20033;-74
2023/11/14 09:38:32;;;;;;;37.65;7.10;;;13.10;99.90;;;;;;5028014;28;20108;-74
2023/11/14 09:40:59;;;;;;;42.03;7.60;;;13.10;99.90;;;;;;5028514;28;20326;-74
2023/11/14 09:43:25;;;;;;;33.55;5.63;;;13.20;99.90;;;;;;5024777;28;20525;-74
2023/11/14 09:45:52;;;;;;;38.28;7.00;;;13.20;99.90;;;;;;5030338;28;20025;-74
2023/11/14 09:48:18;;;;;;;31.95;6.63;;;13.30;99.90;;;;;;5029270;28;20432;-73
2023/11/14 09:50:48;;;;;;;33.42;5.80;;;13.30;99.90;;;;;;5009864;28;20076;-74
2023/11/14 09:53:14;;;;;;;38.58;6.97;;;13.40;99.90;;;;;;5022001;28;20017;-74
2023/11/14 09:55:40;;;;;;;33.08;5.70;;;13.40;99.90;;;;;;5016084;28;20876;-74
2023/11/14 09:58:06;;;;;;;32.53;5.68;;;13.50;99.90;;;;;;5026629;28;20026;-74
2023/11/14 10:00:33;;;;;;;32.70;6.55;;;13.50;99.90;;;;;;5030016;28;20079;-74
2023/11/14 10:03:03;;;;;;;38.90;6.75;;;13.50;99.90;;;;;;5029268;28;20048;-74
2023/11/14 10:05:30;;;;;;;32.40;6.95;;;13.60;99.90;;;;;;5029630;28;20171;-74
2023/11/14 10:07:56;;;;;;;35.28;6.63;;;13.60;99.90;;;;;;5011383;28;20022;-74
2023/11/14 10:10:22;;;;;;;31.00;5.90;;;13.60;99.90;;;;;;5011749;28;20402;-74
2023/11/14 10:12:49;;;;;;;34.25;5.75;;;13.70;99.90;;;;;;5029275;28;20014;-74
2023/11/14 10:15:27;;;;;;;40.08;5.72;;;13.70;99.90;;;;;;5029617;28;20068;-73
2023/11/14 10:17:53;;;;;;;36.15;7.05;;;13.80;99.90;;;;;;5011274;28;20033;-74
2023/11/14 10:20:19;;;;;;;35.28;6.72;;;13.90;99.90;;;;;;5029251;28;20344;-73
2023/11/14 10:22:49;;;;;;;33.33;6.65;;;14.00;99.90;;;;;;5026950;28;20053;-73
2023/11/14 10:25:32;;;;;;;29.27;6.22;;;14.10;99.90;;;;;;5029591;28;20029;-74
2023/11/14 10:27:59;;;;;;;37.70;6.68;;;14.20;99.90;;;;;;5029061;28;20029;-73
2023/11/14 10:30:49;;;;;;;31.60;6.10;;;14.30;99.90;;;;;;5029257;28;20039;-73
2023/11/14 10:33:15;;;;;;;35.50;6.88;;;14.30;99.90;;;;;;5029124;28;20452;-73
2023/11/14 10:35:41;;;;;;;42.67;7.70;;;14.30;99.90;;;;;;5029037;28;20100;-73
2023/11/14 10:38:20;;;;;;;36.55;6.75;;;14.20;99.90;;;;;;5028881;28;20104;-73
2023/11/14 10:40:48;;;;;;;32.47;6.95;;;14.20;99.90;;;;;;5028360;28;20036;-74
2023/11/14 10:43:24;;;;;;;35.22;6.97;;;14.20;99.90;;;;;;5028528;28;20045;-73
2023/11/14 10:45:50;;;;;;;35.80;6.95;;;14.10;99.90;;;;;;5029209;28;20021;-73
2023/11/14 10:48:20;;;;;;;33.33;6.28;;;14.10;99.90;;;;;;5028719;28;20018;-73
2023/11/14 10:50:47;;;;;;;33.83;5.73;;;14.10;99.90;;;;;;5011345;28;20497;-73
2023/11/14 10:53:14;;;;;;;35.47;6.55;;;14.10;99.90;;;;;;5010977;28;20276;-73
2023/11/14 10:55:40;;;;;;;37.70;6.75;;;14.10;99.90;;;;;;5028744;28;20018;-74
2023/11/14 10:58:07;;;;;;;33.30;6.18;;;14.10;99.90;;;;;;5016984;28;20029;-73
2023/11/14 11:00:34;;;;;;;31.40;6.65;;;14.10;99.90;;;;;;5003398;28;20501;-73
2023/11/14 11:03:00;;;;;;;35.10;8.05;;;14.10;99.90;;;;;;5027963;28;20091;-73
2023/11/14 11:05:31;;;;;;;36.03;6.43;;;14.10;99.90;;;;;;5028689;28;20475;-72
2023/11/14 11:08:02;;;;;;;32.72;6.22;;;14.10;99.90;;;;;;5028369;28;20029;-73
2023/11/14 11:10:32;;;;;;;36.53;6.03;;;14.10;99.90;;;;;;5014483;28;20099;-73
2023/11/14 11:13:00;;;;;;;36.78;7.53;;;14.10;99.90;;;;;;5028194;28;20060;-73
2023/11/14 11:15:27;;;;;;;36.17;5.55;;;14.10;99.90;;;;;;5010742;28;20022;-73
2023/11/14 11:18:00;;;;;;;28.67;6.47;;;14.10;99.90;;;;;;5028258;28;20025;-73
2023/11/14 11:20:31;;;;;;;32.40;7.25;;;14.10;99.90;;;;;;5028409;28;20112;-73
2023/11/14 11:23:12;;;;;;;33.50;5.75;;;14.00;99.90;;;;;;4999690;28;20045;-73
2023/11/14 11:25:46;;;;;;;26.42;5.25;;;14.10;99.90;;;;;;5020154;28;20025;-73
2023/11/14 11:28:21;;;;;;;30.83;6.35;;;14.00;99.90;;;;;;5028093;28;20028;-73
2023/11/14 11:31:05;;;;;;;31.83;6.38;;;14.00;99.90;;;;;;5028391;28;20025;-73
2023/11/14 11:33:35;;;;;;;31.55;6.20;;;14.00;99.90;;;;;;5009793;28;20028;-73
2023/11/14 11:36:33;;;;;;;33.10;6.93;;;14.00;99.90;;;;;;4996765;28;20029;-73
2023/11/14 11:39:06;;;;;;;40.40;6.65;;;13.90;99.90;;;;;;5013205;28;20030;-74
2023/11/14 11:41:38;;;;;;;28.08;5.47;;;13.90;99.90;;;;;;5027526;28;20037;-73
2023/11/14 11:44:09;;;;;;;24.05;5.22;;;13.80;99.90;;;;;;5026968;28;20037;-73
2023/11/14 11:46:39;;;;;;;28.52;4.80;;;13.80;99.90;;;;;;5027771;28;20076;-74
2023/11/14 11:49:11;;;;;;;25.20;4.88;;;13.70;99.90;;;;;;5025282;28;20510;-74
2023/11/14 11:51:44;;;;;;;20.98;4.50;;;13.70;99.90;;;;;;5009109;28;20086;-75
2023/11/14 11:54:28;;;;;;;26.27;5.55;;;13.70;99.90;;;;;;5039819;28;20074;-75
2023/11/14 11:57:09;;;;;;;29.58;5.85;;;13.60;99.90;;;;;;5023554;28;20045;-75
2023/11/14 11:59:44;;;;;;;24.73;4.85;;;13.50;99.90;;;;;;5007738;28;20021;-75
2023/11/14 12:02:11;;;;;;;20.58;5.00;;;13.40;99.90;;;;;;5027009;28;20030;-74
2023/11/14 12:04:37;;;;;;;27.63;5.38;;;13.40;99.90;;;;;;5024115;28;20028;-75
2023/11/14 12:07:03;;;;;;;26.98;6.40;;;13.40;99.90;;;;;;5000434;28;20029;-75
2023/11/14 12:09:31;;;;;;;36.25;5.85;;;13.40;99.90;;;;;;5025473;28;20438;-75
2023/11/14 12:11:57;;;;;;;31.70;5.55;;;13.40;99.90;;;;;;5008699;28;20494;-75
2023/11/14 12:14:23;;;;;;;30.45;6.80;;;13.40;99.90;;;;;;5015266;28;20075;-75
2023/11/14 12:16:49;;;;;;;30.52;6.80;;;13.40;99.90;;;;;;5022366;28;20029;-75
2023/11/14 12:19:15;;;;;;;29.08;6.30;;;13.40;99.90;;;;;;5025285;28;20029;-73
2023/11/14 12:21:44;;;;;;;21.77;5.35;;;13.40;99.90;;;;;;5014469;28;20069;-75
2023/11/14 12:24:11;;;;;;;35.47;6.78;;;13.40;99.90;;;;;;5015062;28;20105;-74
2023/11/14 12:26:37;;;;;;;25.80;5.90;;;13.40;99.90;;;;;;5026149;28;20021;-75
2023/11/14 12:29:10;;;;;;;29.13;7.05;;;13.40;99.90;;;;;;5012819;28;20483;-75
2023/11/14 12:31:36;;;;;;;25.15;5.88;;;13.40;99.90;;;;;;5015410;28;20090;-75
2023/11/14 12:34:04;;;;;;;28.95;6.57;;;13.40;99.90;;;;;;5026415;28;20026;-74